createdAt,value
2018-12-08T00:00:59.658Z,64.10
2018-12-08T00:02:02.898Z,64.10
2018-12-08T00:03:06.181Z,63.90
2018-12-08T00:04:09.413Z,64.00
2018-12-08T00:05:12.728Z,64.00
2018-12-08T00:06:16.018Z,63.80
2018-12-08T00:07:19.267Z,63.40
2018-12-08T00:08:22.523Z,63.20
2018-12-08T00:09:26.202Z,63.20
2018-12-08T00:10:29.520Z,63.10
2018-12-08T00:11:32.785Z,63.00
2018-12-08T00:12:36.042Z,63.10
2018-12-08T00:13:39.309Z,62.90
2018-12-08T00:14:42.624Z,63.00
2018-12-08T00:15:45.874Z,63.10
2018-12-08T00:16:49.151Z,63.10
2018-12-08T00:17:52.431Z,63.30
2018-12-08T00:18:55.674Z,63.30
2018-12-08T00:19:59.412Z,63.40
2018-12-08T00:21:02.675Z,63.30
2018-12-08T00:22:06.226Z,63.30
2018-12-08T00:23:09.489Z,63.20
2018-12-08T00:24:12.760Z,63.50
2018-12-08T00:25:16.015Z,62.10
2018-12-08T00:26:19.305Z,62.20
2018-12-08T00:27:22.592Z,62.20
2018-12-08T00:28:26.036Z,62.10
2018-12-08T00:29:29.291Z,61.90
2018-12-08T00:30:44.177Z,62.00
2018-12-08T00:31:47.452Z,62.00
2018-12-08T00:32:50.711Z,62.10
2018-12-08T00:33:53.970Z,62.00
2018-12-08T00:34:57.445Z,61.90
2018-12-08T00:36:00.682Z,61.90
2018-12-08T00:37:04.030Z,62.10
2018-12-08T00:38:07.263Z,62.10
2018-12-08T00:39:10.513Z,62.10
2018-12-08T00:40:13.750Z,62.10
2018-12-08T00:41:17.080Z,61.60
2018-12-08T00:42:20.374Z,61.80
2018-12-08T00:43:23.771Z,61.60
2018-12-08T00:44:27.022Z,61.70
2018-12-08T00:45:30.287Z,61.70
2018-12-08T00:46:33.857Z,61.60
2018-12-08T00:47:37.104Z,61.70
2018-12-08T00:48:40.384Z,61.80
2018-12-08T00:49:43.648Z,61.70
2018-12-08T00:50:46.869Z,61.70
2018-12-08T00:51:50.209Z,61.60
2018-12-08T00:52:53.543Z,61.60
2018-12-08T00:53:58.740Z,61.40
2018-12-08T00:55:01.988Z,61.60
2018-12-08T00:56:05.221Z,61.40
2018-12-08T00:57:08.547Z,61.70
2018-12-08T00:58:11.874Z,62.00
2018-12-08T00:59:15.122Z,62.00
2018-12-08T01:00:18.372Z,62.10
2018-12-08T01:01:21.620Z,62.20
2018-12-08T01:02:24.986Z,62.40
2018-12-08T01:03:30.148Z,62.30
2018-12-08T01:04:33.411Z,62.10
2018-12-08T01:05:36.636Z,62.10
2018-12-08T01:06:39.893Z,62.10
2018-12-08T01:07:43.137Z,62.10
2018-12-08T01:08:46.370Z,62.10
2018-12-08T01:09:49.602Z,62.10
2018-12-08T01:10:52.932Z,62.00
2018-12-08T01:11:56.198Z,62.10
2018-12-08T01:12:59.435Z,62.20
2018-12-08T01:14:03.061Z,62.20
2018-12-08T01:15:06.396Z,61.90
2018-12-08T01:16:09.667Z,62.10
2018-12-08T01:17:12.921Z,62.00
2018-12-08T01:18:16.169Z,62.00
2018-12-08T01:19:19.426Z,61.90
2018-12-08T01:20:22.661Z,61.80
2018-12-08T01:21:26.000Z,61.80
2018-12-08T01:22:29.298Z,61.80
2018-12-08T01:23:32.559Z,61.90
2018-12-08T01:24:35.838Z,61.70
2018-12-08T01:25:39.118Z,61.70
2018-12-08T01:26:42.365Z,61.80
2018-12-08T01:27:45.787Z,61.60
2018-12-08T01:28:49.134Z,61.70
2018-12-08T01:29:52.337Z,61.70
2018-12-08T01:30:55.574Z,61.70
2018-12-08T01:31:58.897Z,61.60
2018-12-08T01:33:02.139Z,61.50
2018-12-08T01:34:05.423Z,61.50
2018-12-08T01:35:08.714Z,61.50
2018-12-08T01:36:11.971Z,61.70
2018-12-08T01:37:15.225Z,61.40
2018-12-08T01:38:18.503Z,61.30
2018-12-08T01:39:21.733Z,61.40
2018-12-08T01:40:25.429Z,61.20
2018-12-08T01:41:28.688Z,61.30
2018-12-08T01:42:32.038Z,61.30
2018-12-08T01:43:35.398Z,61.30
2018-12-08T01:44:38.647Z,61.50
2018-12-08T01:45:41.940Z,61.50
2018-12-08T01:46:45.189Z,61.70
2018-12-08T01:47:48.422Z,61.70
2018-12-08T01:48:51.653Z,61.80
2018-12-08T01:49:55.809Z,61.90
2018-12-08T01:50:59.042Z,62.00
2018-12-08T01:52:02.283Z,62.10
2018-12-08T01:53:05.854Z,62.20
2018-12-08T01:54:09.054Z,62.20
2018-12-08T01:55:12.517Z,62.20
2018-12-08T01:56:15.801Z,62.40
2018-12-08T01:57:19.062Z,62.30
2018-12-08T01:58:22.492Z,62.30
2018-12-08T01:59:25.764Z,62.30
2018-12-08T02:00:29.007Z,62.20
2018-12-08T02:01:32.327Z,62.20
2018-12-08T02:02:35.710Z,62.20
2018-12-08T02:03:38.974Z,63.10
2018-12-08T02:04:42.223Z,62.30
2018-12-08T02:05:45.460Z,62.30
2018-12-08T02:06:48.726Z,62.20
2018-12-08T02:07:51.996Z,62.10
2018-12-08T02:08:55.215Z,62.10
2018-12-08T02:09:58.442Z,62.10
2018-12-08T02:11:01.676Z,62.10
2018-12-08T02:12:10.972Z,62.00
2018-12-08T02:13:20.256Z,62.00
2018-12-08T02:14:29.585Z,61.90
2018-12-08T02:15:32.814Z,61.90
2018-12-08T02:16:36.061Z,61.80
2018-12-08T02:17:39.304Z,62.60
2018-12-08T02:18:42.692Z,61.90
2018-12-08T02:19:46.049Z,61.40
2018-12-08T02:20:49.287Z,61.70
2018-12-08T02:21:52.539Z,61.50
2018-12-08T02:22:55.862Z,61.70
2018-12-08T02:23:59.114Z,61.80
2018-12-08T02:25:02.376Z,61.80
2018-12-08T02:26:05.630Z,61.90
2018-12-08T02:27:08.938Z,62.00
2018-12-08T02:28:12.181Z,62.10
2018-12-08T02:29:15.414Z,62.10
2018-12-08T02:30:18.658Z,62.30
2018-12-08T02:31:21.959Z,62.40
2018-12-08T02:32:25.350Z,62.70
2018-12-08T02:33:28.625Z,62.90
2018-12-08T02:34:31.906Z,62.90
2018-12-08T02:35:35.185Z,63.10
2018-12-08T02:36:38.428Z,63.10
2018-12-08T02:37:41.684Z,63.10
2018-12-08T02:38:44.925Z,62.90
2018-12-08T02:39:48.175Z,62.80
2018-12-08T02:40:51.432Z,62.70
2018-12-08T02:41:54.667Z,62.50
2018-12-08T02:42:57.929Z,62.50
2018-12-08T02:44:01.479Z,62.30
2018-12-08T02:45:05.078Z,62.30
2018-12-08T02:46:08.310Z,62.20
2018-12-08T02:47:11.586Z,61.90
2018-12-08T02:48:14.873Z,61.90
2018-12-08T02:49:18.142Z,61.90
2018-12-08T02:50:21.417Z,62.30
2018-12-08T02:51:24.654Z,62.30
2018-12-08T02:52:27.895Z,61.30
2018-12-08T02:53:31.147Z,61.30
2018-12-08T02:54:34.355Z,61.60
2018-12-08T02:55:37.639Z,62.10
2018-12-08T02:56:40.856Z,61.20
2018-12-08T02:57:44.185Z,61.30
2018-12-08T02:58:47.418Z,61.10
2018-12-08T02:59:50.673Z,61.30
2018-12-08T03:00:53.926Z,61.20
2018-12-08T03:01:57.153Z,61.40
2018-12-08T03:03:00.423Z,61.40
2018-12-08T03:04:03.671Z,61.40
2018-12-08T03:05:07.098Z,61.40
2018-12-08T03:06:10.419Z,61.20
2018-12-08T03:07:13.643Z,61.40
2018-12-08T03:08:16.862Z,61.50
2018-12-08T03:09:20.129Z,61.40
2018-12-08T03:10:23.427Z,61.40
2018-12-08T03:11:26.703Z,61.50
2018-12-08T03:12:29.946Z,61.50
2018-12-08T03:13:33.163Z,61.70
2018-12-08T03:14:36.497Z,61.50
2018-12-08T03:15:39.706Z,61.50
2018-12-08T03:16:42.956Z,61.60
2018-12-08T03:17:46.192Z,61.70
2018-12-08T03:18:49.470Z,61.80
2018-12-08T03:19:52.720Z,61.80
2018-12-08T03:20:55.985Z,61.90
2018-12-08T03:21:59.228Z,61.90
2018-12-08T03:23:02.465Z,62.00
2018-12-08T03:24:05.751Z,62.10
2018-12-08T03:25:08.959Z,62.20
2018-12-08T03:26:12.201Z,62.20
2018-12-08T03:27:15.442Z,62.40
2018-12-08T03:28:18.690Z,62.50
2018-12-08T03:29:21.942Z,62.60
2018-12-08T03:30:25.267Z,62.60
2018-12-08T03:31:28.579Z,62.70
2018-12-08T03:32:31.807Z,62.80
2018-12-08T03:33:35.358Z,62.90
2018-12-08T03:34:38.576Z,62.90
2018-12-08T03:35:41.812Z,63.10
2018-12-08T03:36:45.070Z,63.10
2018-12-08T03:37:48.298Z,63.20
2018-12-08T03:38:51.568Z,63.10
2018-12-08T03:39:54.881Z,63.20
2018-12-08T03:40:58.124Z,63.20
2018-12-08T03:42:01.436Z,63.40
2018-12-08T03:43:04.679Z,63.60
2018-12-08T03:44:07.937Z,62.90
2018-12-08T03:45:11.192Z,63.90
2018-12-08T03:46:14.462Z,64.20
2018-12-08T03:47:17.711Z,64.20
2018-12-08T03:48:20.953Z,64.20
2018-12-08T03:49:24.273Z,64.10
2018-12-08T03:50:27.524Z,63.90
2018-12-08T03:51:30.755Z,64.20
2018-12-08T03:52:34.001Z,64.30
2018-12-08T03:53:37.286Z,64.30
2018-12-08T03:54:40.534Z,64.40
2018-12-08T03:55:44.931Z,64.60
2018-12-08T03:56:48.374Z,64.90
2018-12-08T03:57:51.601Z,65.10
2018-12-08T03:58:54.849Z,65.10
2018-12-08T03:59:58.130Z,65.00
2018-12-08T04:01:01.516Z,64.90
2018-12-08T04:02:04.799Z,65.10
2018-12-08T04:03:08.049Z,65.20
2018-12-08T04:04:11.300Z,65.20
2018-12-08T04:05:14.553Z,65.10
2018-12-08T04:06:17.818Z,65.30
2018-12-08T04:07:21.052Z,65.50
2018-12-08T04:08:24.351Z,65.40
2018-12-08T04:09:27.737Z,65.80
2018-12-08T04:10:31.083Z,66.50
2018-12-08T04:11:34.323Z,67.00
2018-12-08T04:12:37.592Z,67.00
2018-12-08T04:13:40.829Z,67.60
2018-12-08T04:14:44.224Z,68.30
2018-12-08T04:15:47.468Z,68.60
2018-12-08T04:16:50.699Z,68.70
2018-12-08T04:17:53.975Z,68.50
2018-12-08T04:18:57.191Z,68.30
2018-12-08T04:20:00.539Z,68.70
2018-12-08T04:21:03.819Z,68.80
2018-12-08T04:22:07.113Z,68.40
2018-12-08T04:23:10.351Z,68.20
2018-12-08T04:24:13.599Z,68.60
2018-12-08T04:25:16.880Z,68.70
2018-12-08T04:26:20.108Z,68.90
2018-12-08T04:27:23.362Z,68.50
2018-12-08T04:28:26.623Z,68.40
2018-12-08T04:29:29.863Z,69.00
2018-12-08T04:30:33.157Z,69.00
2018-12-08T04:31:36.610Z,69.20
2018-12-08T04:32:39.860Z,69.00
2018-12-08T04:33:43.134Z,69.10
2018-12-08T04:34:46.430Z,68.80
2018-12-08T04:35:49.944Z,69.10
2018-12-08T04:36:53.173Z,68.80
2018-12-08T04:37:56.398Z,68.80
2018-12-08T04:38:59.624Z,69.00
2018-12-08T04:40:03.669Z,68.50
2018-12-08T04:41:06.928Z,69.10
2018-12-08T04:42:10.211Z,69.00
2018-12-08T04:43:13.568Z,68.90
2018-12-08T04:44:16.866Z,69.40
2018-12-08T04:45:20.086Z,69.10
2018-12-08T04:46:23.331Z,68.80
2018-12-08T04:47:26.637Z,68.80
2018-12-08T04:48:29.868Z,68.70
2018-12-08T04:49:33.120Z,69.40
2018-12-08T04:50:36.371Z,68.50
2018-12-08T04:51:39.620Z,68.40
2018-12-08T04:52:42.864Z,68.40
2018-12-08T04:53:46.166Z,68.40
2018-12-08T04:54:49.441Z,68.20
2018-12-08T04:55:52.693Z,68.20
2018-12-08T04:56:55.930Z,68.10
2018-12-08T04:57:59.163Z,68.10
2018-12-08T04:59:02.460Z,68.00
2018-12-08T05:00:06.293Z,67.80
2018-12-08T05:01:09.560Z,67.70
2018-12-08T05:02:12.880Z,67.70
2018-12-08T05:03:16.099Z,67.80
2018-12-08T05:04:19.463Z,67.60
2018-12-08T05:05:22.753Z,67.50
2018-12-08T05:06:25.956Z,67.40
2018-12-08T05:07:29.187Z,67.30
2018-12-08T05:08:32.428Z,67.30
2018-12-08T05:09:35.688Z,67.00
2018-12-08T05:10:38.954Z,67.10
2018-12-08T05:11:42.301Z,67.10
2018-12-08T05:12:45.516Z,67.10
2018-12-08T05:13:48.753Z,67.10
2018-12-08T05:14:51.998Z,67.10
2018-12-08T05:15:55.244Z,67.00
2018-12-08T05:16:58.603Z,66.90
2018-12-08T05:18:01.866Z,66.70
2018-12-08T05:19:05.114Z,66.50
2018-12-08T05:20:08.622Z,66.50
2018-12-08T05:21:11.938Z,67.30
2018-12-08T05:22:15.215Z,66.50
2018-12-08T05:23:18.474Z,66.40
2018-12-08T05:24:21.719Z,66.30
2018-12-08T05:25:24.952Z,66.40
2018-12-08T05:26:28.245Z,66.60
2018-12-08T05:27:31.489Z,66.30
2018-12-08T05:28:34.743Z,66.10
2018-12-08T05:29:37.985Z,66.20
2018-12-08T05:30:41.216Z,65.70
2018-12-08T05:31:44.460Z,66.10
2018-12-08T05:32:47.679Z,66.10
2018-12-08T05:33:51.569Z,66.00
2018-12-08T05:34:54.830Z,65.90
2018-12-08T05:35:58.270Z,66.30
2018-12-08T05:37:01.528Z,65.80
2018-12-08T05:38:04.799Z,65.60
2018-12-08T05:39:08.077Z,65.60
2018-12-08T05:40:11.349Z,65.60
2018-12-08T05:41:14.623Z,65.70
2018-12-08T05:42:18.002Z,65.60
2018-12-08T05:43:21.248Z,65.60
2018-12-08T05:44:24.578Z,65.40
2018-12-08T05:45:27.953Z,65.40
2018-12-08T05:46:31.168Z,65.50
2018-12-08T05:47:34.452Z,65.40
2018-12-08T05:48:38.318Z,65.40
2018-12-08T05:49:41.659Z,65.40
2018-12-08T05:50:44.843Z,65.40
2018-12-08T05:51:48.060Z,65.50
2018-12-08T05:52:51.291Z,65.50
2018-12-08T05:53:54.574Z,65.40
2018-12-08T05:54:57.848Z,65.20
2018-12-08T05:56:01.284Z,65.10
2018-12-08T05:57:04.533Z,64.60
2018-12-08T05:58:07.840Z,64.60
2018-12-08T05:59:11.192Z,64.10
2018-12-08T06:00:14.454Z,64.40
2018-12-08T06:01:18.517Z,64.30
2018-12-08T06:02:21.846Z,64.10
2018-12-08T06:03:25.208Z,64.50
2018-12-08T06:04:28.456Z,64.30
2018-12-08T06:05:31.734Z,64.10
2018-12-08T06:06:34.989Z,64.90
2018-12-08T06:07:38.236Z,64.20
2018-12-08T06:08:41.587Z,64.20
2018-12-08T06:09:44.822Z,64.10
2018-12-08T06:10:48.102Z,63.70
2018-12-08T06:11:51.408Z,63.90
2018-12-08T06:12:55.177Z,63.90
2018-12-08T06:13:58.570Z,63.60
2018-12-08T06:15:01.805Z,63.60
2018-12-08T06:16:05.032Z,63.00
2018-12-08T06:17:08.273Z,63.40
2018-12-08T06:18:11.496Z,63.30
2018-12-08T06:19:14.788Z,63.20
2018-12-08T06:20:18.148Z,63.10
2018-12-08T06:21:31.243Z,63.10
2018-12-08T06:22:34.453Z,63.30
2018-12-08T06:23:37.678Z,63.20
2018-12-08T06:24:41.037Z,63.30
2018-12-08T06:25:44.338Z,63.40
2018-12-08T06:26:49.211Z,63.10
2018-12-08T06:28:00.128Z,63.10
2018-12-08T06:29:03.507Z,63.10
2018-12-08T06:30:08.290Z,63.70
2018-12-08T06:31:11.541Z,63.10
2018-12-08T06:32:14.798Z,63.10
2018-12-08T06:33:18.041Z,63.20
2018-12-08T06:34:21.260Z,63.10
2018-12-08T06:35:24.522Z,63.10
2018-12-08T06:36:28.410Z,63.30
2018-12-08T06:37:31.657Z,63.40
2018-12-08T06:38:34.903Z,63.40
2018-12-08T06:39:38.767Z,63.50
2018-12-08T06:40:42.020Z,63.60
2018-12-08T06:41:45.873Z,63.60
2018-12-08T06:42:49.120Z,63.60
2018-12-08T06:43:56.326Z,63.70
2018-12-08T06:44:59.633Z,63.70
2018-12-08T06:46:02.986Z,63.60
2018-12-08T06:47:06.362Z,63.60
2018-12-08T06:48:10.187Z,63.60
2018-12-08T06:49:13.434Z,63.70
2018-12-08T06:50:16.698Z,63.80
2018-12-08T06:51:19.939Z,64.40
2018-12-08T06:52:23.218Z,63.60
2018-12-08T06:53:26.621Z,63.60
2018-12-08T06:54:29.972Z,63.80
2018-12-08T06:55:33.268Z,63.80
2018-12-08T06:56:36.537Z,63.90
2018-12-08T06:57:39.841Z,63.90
2018-12-08T06:58:43.076Z,63.80
2018-12-08T06:59:46.308Z,63.80
2018-12-08T07:00:49.604Z,63.80
2018-12-08T07:01:52.957Z,63.80
2018-12-08T07:02:56.166Z,63.70
2018-12-08T07:03:59.414Z,63.50
2018-12-08T07:05:02.658Z,63.40
2018-12-08T07:06:06.130Z,63.70
2018-12-08T07:07:09.417Z,63.60
2018-12-08T07:08:12.648Z,63.50
2018-12-08T07:09:15.882Z,63.40
2018-12-08T07:10:19.136Z,63.50
2018-12-08T07:11:22.358Z,63.60
2018-12-08T07:12:25.622Z,63.60
2018-12-08T07:13:28.848Z,63.70
2018-12-08T07:14:32.108Z,63.70
2018-12-08T07:15:35.348Z,63.60
2018-12-08T07:16:38.648Z,63.50
2018-12-08T07:17:41.922Z,63.50
2018-12-08T07:18:45.164Z,63.40
2018-12-08T07:19:48.505Z,63.20
2018-12-08T07:20:51.896Z,63.70
2018-12-08T07:21:55.136Z,63.10
2018-12-08T07:22:58.372Z,63.00
2018-12-08T07:24:02.638Z,63.20
2018-12-08T07:25:06.063Z,63.20
2018-12-08T07:26:09.304Z,63.10
2018-12-08T07:27:12.570Z,63.30
2018-12-08T07:28:15.798Z,63.10
2018-12-08T07:29:19.152Z,62.90
2018-12-08T07:30:22.430Z,63.00
2018-12-08T07:31:26.954Z,63.00
2018-12-08T07:32:30.272Z,62.70
2018-12-08T07:33:33.560Z,62.40
2018-12-08T07:34:36.840Z,62.80
2018-12-08T07:35:40.195Z,62.90
2018-12-08T07:36:43.492Z,63.00
2018-12-08T07:37:46.762Z,62.90
2018-12-08T07:38:49.995Z,63.00
2018-12-08T07:39:53.302Z,62.70
2018-12-08T07:40:56.501Z,62.60
2018-12-08T07:41:59.811Z,62.50
2018-12-08T07:43:03.100Z,62.10
2018-12-08T07:44:06.366Z,62.40
2018-12-08T07:45:09.617Z,62.50
2018-12-08T07:46:12.854Z,62.40
2018-12-08T07:47:16.160Z,62.50
2018-12-08T07:48:19.388Z,62.10
2018-12-08T07:49:22.654Z,62.10
2018-12-08T07:50:25.904Z,62.00
2018-12-08T07:51:29.138Z,61.70
2018-12-08T07:52:32.387Z,61.30
2018-12-08T07:53:35.618Z,61.40
2018-12-08T07:54:38.967Z,62.60
2018-12-08T07:55:42.172Z,61.60
2018-12-08T07:56:45.394Z,61.70
2018-12-08T07:57:48.652Z,61.90
2018-12-08T07:58:51.936Z,61.60
2018-12-08T07:59:55.190Z,61.60
2018-12-08T08:00:58.833Z,61.70
2018-12-08T08:02:02.165Z,62.10
2018-12-08T08:03:05.361Z,61.50
2018-12-08T08:04:08.579Z,61.40
2018-12-08T08:05:11.900Z,61.60
2018-12-08T08:06:15.160Z,61.60
2018-12-08T08:07:18.403Z,61.20
2018-12-08T08:08:21.646Z,62.60
2018-12-08T08:09:24.908Z,61.40
2018-12-08T08:10:30.496Z,61.70
2018-12-08T08:11:33.747Z,61.70
2018-12-08T08:12:37.016Z,61.70
2018-12-08T08:13:40.278Z,61.90
2018-12-08T08:14:43.526Z,61.70
2018-12-08T08:15:46.752Z,61.60
2018-12-08T08:16:50.026Z,61.80
2018-12-08T08:17:53.290Z,61.60
2018-12-08T08:18:56.664Z,61.30
2018-12-08T08:19:59.898Z,61.50
2018-12-08T08:21:03.783Z,61.60
2018-12-08T08:22:07.035Z,61.50
2018-12-08T08:23:10.271Z,61.70
2018-12-08T08:24:13.575Z,61.30
2018-12-08T08:25:16.798Z,61.20
2018-12-08T08:26:20.088Z,61.90
2018-12-08T08:27:23.362Z,60.90
2018-12-08T08:28:26.652Z,61.20
2018-12-08T08:29:29.926Z,60.90
2018-12-08T08:30:33.135Z,61.10
2018-12-08T08:31:36.621Z,61.30
2018-12-08T08:32:39.868Z,60.80
2018-12-08T08:33:43.142Z,60.70
2018-12-08T08:34:46.353Z,60.70
2018-12-08T08:35:49.602Z,61.50
2018-12-08T08:36:52.827Z,60.60
2018-12-08T08:37:56.079Z,60.60
2018-12-08T08:38:59.338Z,60.10
2018-12-08T08:40:04.119Z,60.30
2018-12-08T08:41:07.377Z,60.20
2018-12-08T08:42:10.591Z,61.20
2018-12-08T08:43:13.838Z,60.20
2018-12-08T08:44:17.123Z,60.20
2018-12-08T08:45:20.430Z,60.60
2018-12-08T08:46:24.392Z,60.50
2018-12-08T08:47:27.691Z,60.50
2018-12-08T08:48:30.931Z,60.60
2018-12-08T08:49:34.170Z,60.40
2018-12-08T08:50:37.480Z,60.70
2018-12-08T08:51:40.726Z,60.70
2018-12-08T08:52:44.083Z,60.40
2018-12-08T08:53:47.415Z,60.60
2018-12-08T08:54:51.318Z,60.50
2018-12-08T08:55:54.578Z,60.20
2018-12-08T08:57:03.860Z,60.20
2018-12-08T08:58:07.299Z,60.20
2018-12-08T08:59:10.559Z,60.20
2018-12-08T09:00:13.847Z,60.20
2018-12-08T09:01:17.073Z,60.20
2018-12-08T09:02:20.522Z,60.40
2018-12-08T09:03:23.765Z,59.80
2018-12-08T09:04:27.029Z,60.10
2018-12-08T09:05:30.264Z,59.80
2018-12-08T09:06:33.502Z,59.30
2018-12-08T09:07:36.740Z,59.70
2018-12-08T09:08:40.067Z,59.50
2018-12-08T09:09:43.330Z,59.50
2018-12-08T09:10:46.634Z,59.50
2018-12-08T09:11:49.870Z,59.60
2018-12-08T09:12:53.138Z,59.60
2018-12-08T09:13:56.385Z,59.50
2018-12-08T09:15:00.309Z,59.20
2018-12-08T09:16:03.591Z,59.30
2018-12-08T09:17:06.839Z,59.20
2018-12-08T09:18:10.193Z,59.30
2018-12-08T09:19:13.425Z,59.80
2018-12-08T09:20:16.698Z,58.70
2018-12-08T09:21:19.974Z,59.00
2018-12-08T09:22:23.239Z,59.10
2018-12-08T09:23:26.561Z,58.90
2018-12-08T09:24:29.846Z,58.90
2018-12-08T09:25:33.824Z,59.20
2018-12-08T09:26:37.062Z,59.20
2018-12-08T09:27:40.296Z,58.50
2018-12-08T09:28:43.530Z,58.50
2018-12-08T09:29:46.763Z,58.50
2018-12-08T09:30:50.053Z,58.80
2018-12-08T09:31:53.300Z,58.50
2018-12-08T09:32:56.554Z,58.30
2018-12-08T09:33:59.785Z,57.60
2018-12-08T09:35:03.131Z,58.00
2018-12-08T09:36:06.418Z,57.80
2018-12-08T09:37:09.679Z,57.60
2018-12-08T09:38:12.919Z,57.90
2018-12-08T09:39:16.173Z,58.00
2018-12-08T09:40:19.405Z,57.80
2018-12-08T09:41:22.646Z,57.90
2018-12-08T09:42:25.980Z,57.70
2018-12-08T09:43:29.799Z,57.70
2018-12-08T09:44:33.069Z,57.60
2018-12-08T09:45:41.806Z,57.80
2018-12-08T09:46:41.770Z,57.80
2018-12-08T09:47:45.021Z,57.20
2018-12-08T09:48:48.261Z,57.10
2018-12-08T09:49:51.642Z,57.50
2018-12-08T09:50:54.929Z,57.10
2018-12-08T09:51:58.184Z,57.50
2018-12-08T09:53:11.452Z,57.20
2018-12-08T09:54:15.614Z,57.30
2018-12-08T09:55:18.863Z,57.10
2018-12-08T09:56:22.106Z,56.80
2018-12-08T09:57:25.346Z,57.10
2018-12-08T09:58:28.761Z,57.10
2018-12-08T09:59:32.090Z,56.70
2018-12-08T10:00:35.380Z,56.70
2018-12-08T10:01:38.649Z,56.60
2018-12-08T10:02:41.979Z,56.80
2018-12-08T10:03:45.234Z,57.20
2018-12-08T10:04:48.488Z,56.80
2018-12-08T10:05:51.722Z,56.70
2018-12-08T10:06:54.942Z,56.70
2018-12-08T10:07:58.189Z,56.70
2018-12-08T10:09:01.434Z,56.50
2018-12-08T10:10:06.902Z,56.20
2018-12-08T10:11:10.236Z,56.20
2018-12-08T10:12:13.565Z,56.20
2018-12-08T10:13:16.983Z,55.70
2018-12-08T10:14:20.773Z,56.30
2018-12-08T10:15:24.068Z,55.90
2018-12-08T10:16:27.336Z,56.20
2018-12-08T10:17:30.877Z,56.20
2018-12-08T10:18:34.089Z,55.90
2018-12-08T10:19:37.332Z,56.20
2018-12-08T10:20:41.074Z,56.60
2018-12-08T10:21:44.332Z,56.50
2018-12-08T10:22:47.597Z,56.30
2018-12-08T10:23:51.002Z,56.50
2018-12-08T10:24:54.321Z,55.60
2018-12-08T10:25:57.578Z,56.20
2018-12-08T10:27:00.880Z,55.00
2018-12-08T10:28:04.159Z,55.00
2018-12-08T10:29:07.647Z,55.20
2018-12-08T10:30:11.292Z,55.10
2018-12-08T10:31:14.532Z,54.50
2018-12-08T10:32:18.180Z,54.30
2018-12-08T10:33:21.437Z,54.60
2018-12-08T10:34:24.680Z,54.60
2018-12-08T10:35:27.930Z,55.00
2018-12-08T10:36:31.201Z,55.10
2018-12-08T10:37:34.434Z,55.10
2018-12-08T10:38:37.744Z,55.00
2018-12-08T10:39:41.059Z,54.60
2018-12-08T10:40:44.304Z,54.90
2018-12-08T10:41:48.283Z,54.60
2018-12-08T10:42:51.655Z,54.50
2018-12-08T10:43:54.996Z,54.30
2018-12-08T10:44:58.270Z,54.70
2018-12-08T10:46:01.530Z,54.70
2018-12-08T10:47:04.944Z,54.50
2018-12-08T10:48:08.281Z,54.30
2018-12-08T10:49:11.578Z,54.40
2018-12-08T10:50:14.878Z,54.90
2018-12-08T10:51:18.165Z,54.60
2018-12-08T10:52:21.539Z,54.90
2018-12-08T10:53:24.788Z,54.90
2018-12-08T10:54:28.088Z,54.40
2018-12-08T10:55:31.397Z,54.10
2018-12-08T10:56:34.649Z,54.50
2018-12-08T10:57:37.989Z,54.20
2018-12-08T10:58:41.272Z,54.10
2018-12-08T10:59:44.534Z,54.00
2018-12-08T11:00:53.416Z,54.20
2018-12-08T11:01:58.643Z,54.20
2018-12-08T11:03:03.939Z,53.50
2018-12-08T11:04:07.189Z,53.30
2018-12-08T11:05:10.460Z,53.20
2018-12-08T11:06:13.735Z,53.40
2018-12-08T11:07:17.062Z,53.80
2018-12-08T11:08:20.332Z,53.40
2018-12-08T11:09:23.597Z,53.00
2018-12-08T11:10:26.853Z,53.60
2018-12-08T11:11:30.119Z,53.50
2018-12-08T11:12:33.443Z,54.30
2018-12-08T11:13:36.677Z,53.50
2018-12-08T11:14:39.902Z,53.50
2018-12-08T11:15:43.158Z,53.70
2018-12-08T11:16:46.441Z,53.40
2018-12-08T11:17:49.688Z,52.90
2018-12-08T11:18:52.925Z,52.40
2018-12-08T11:19:56.162Z,52.70
2018-12-08T11:20:59.458Z,53.30
2018-12-08T11:22:02.807Z,53.20
2018-12-08T11:23:07.035Z,53.30
2018-12-08T11:24:10.311Z,53.00
2018-12-08T11:25:13.563Z,52.90
2018-12-08T11:26:16.874Z,53.00
2018-12-08T11:27:20.112Z,53.20
2018-12-08T11:28:23.369Z,52.60
2018-12-08T11:29:26.657Z,52.70
2018-12-08T11:30:31.344Z,53.10
2018-12-08T11:31:34.740Z,52.80
2018-12-08T11:32:38.021Z,53.00
2018-12-08T11:33:41.282Z,53.00
2018-12-08T11:34:44.536Z,53.00
2018-12-08T11:35:49.698Z,53.10
2018-12-08T11:36:53.111Z,52.70
2018-12-08T11:37:56.353Z,52.80
2018-12-08T11:38:59.633Z,52.80
2018-12-08T11:40:02.968Z,53.10
2018-12-08T11:41:06.232Z,53.40
2018-12-08T11:42:09.472Z,53.50
2018-12-08T11:43:12.986Z,53.10
2018-12-08T11:44:16.477Z,53.10
2018-12-08T11:45:19.797Z,52.90
2018-12-08T11:46:23.052Z,53.30
2018-12-08T11:47:26.494Z,53.50
2018-12-08T11:48:29.730Z,53.00
2018-12-08T11:49:33.021Z,53.40
2018-12-08T11:50:36.338Z,53.10
2018-12-08T11:51:39.654Z,52.70
2018-12-08T11:52:42.904Z,52.40
2018-12-08T11:53:46.143Z,51.00
2018-12-08T11:54:49.437Z,52.00
2018-12-08T11:55:52.698Z,51.40
2018-12-08T11:56:55.964Z,51.90
2018-12-08T11:57:59.202Z,51.30
2018-12-08T11:59:02.455Z,50.20
2018-12-08T12:00:07.801Z,50.00
2018-12-08T12:01:11.193Z,49.90
2018-12-08T12:02:16.571Z,49.70
2018-12-08T12:03:19.711Z,49.30
2018-12-08T12:04:22.987Z,49.70
2018-12-08T12:05:26.298Z,49.50
2018-12-08T12:06:29.633Z,48.60
2018-12-08T12:07:32.865Z,49.20
2018-12-08T12:08:36.153Z,49.40
2018-12-08T12:09:39.538Z,49.40
2018-12-08T12:10:42.793Z,49.70
2018-12-08T12:11:46.062Z,49.60
2018-12-08T12:12:49.317Z,49.90
2018-12-08T12:13:52.588Z,49.70
2018-12-08T12:14:55.826Z,49.20
2018-12-08T12:15:59.124Z,49.60
2018-12-08T12:17:02.358Z,49.70
2018-12-08T12:18:05.698Z,49.40
2018-12-08T12:19:08.946Z,49.50
2018-12-08T12:20:12.243Z,49.90
2018-12-08T12:21:15.510Z,49.80
2018-12-08T12:22:18.776Z,49.80
2018-12-08T12:23:22.057Z,49.90
2018-12-08T12:24:25.354Z,50.00
2018-12-08T12:25:28.858Z,50.30
2018-12-08T12:26:32.166Z,50.40
2018-12-08T12:27:35.432Z,50.50
2018-12-08T12:28:38.772Z,50.80
2018-12-08T12:29:42.109Z,50.50
2018-12-08T12:30:50.553Z,50.60
2018-12-08T12:31:53.816Z,50.80
2018-12-08T12:32:57.066Z,50.70
2018-12-08T12:34:00.362Z,50.80
2018-12-08T12:35:03.952Z,50.60
2018-12-08T12:36:07.561Z,50.40
2018-12-08T12:37:10.833Z,50.70
2018-12-08T12:38:14.114Z,50.90
2018-12-08T12:39:17.412Z,50.50
2018-12-08T12:40:20.694Z,51.00
2018-12-08T12:41:23.966Z,51.60
2018-12-08T12:42:27.299Z,51.70
2018-12-08T12:43:30.561Z,51.70
2018-12-08T12:44:33.927Z,51.60
2018-12-08T12:45:37.183Z,51.40
2018-12-08T12:46:41.331Z,51.30
2018-12-08T12:47:44.642Z,51.20
2018-12-08T12:48:47.883Z,51.50
2018-12-08T12:49:51.160Z,51.50
2018-12-08T12:50:56.160Z,51.70
2018-12-08T12:51:59.400Z,51.60
2018-12-08T12:53:02.707Z,51.80
2018-12-08T12:54:05.930Z,51.80
2018-12-08T12:55:09.238Z,51.80
2018-12-08T12:56:12.612Z,51.80
2018-12-08T12:57:15.847Z,51.70
2018-12-08T12:58:19.127Z,51.70
2018-12-08T12:59:22.454Z,51.80
2018-12-08T13:00:25.713Z,51.90
2018-12-08T13:01:28.996Z,51.90
2018-12-08T13:02:32.219Z,51.70
2018-12-08T13:03:35.510Z,51.80
2018-12-08T13:04:38.736Z,51.90
2018-12-08T13:05:42.006Z,52.00
2018-12-08T13:06:45.342Z,51.90
2018-12-08T13:07:48.619Z,52.10
2018-12-08T13:08:53.349Z,52.00
2018-12-08T13:09:56.748Z,52.20
2018-12-08T13:11:00.020Z,52.40
2018-12-08T13:12:03.439Z,53.10
2018-12-08T13:13:06.720Z,52.30
2018-12-08T13:14:10.061Z,52.20
2018-12-08T13:15:13.321Z,52.40
2018-12-08T13:16:16.592Z,52.40
2018-12-08T13:17:19.838Z,52.50
2018-12-08T13:18:23.532Z,52.50
2018-12-08T13:19:26.897Z,52.30
2018-12-08T13:20:30.253Z,52.30
2018-12-08T13:21:33.578Z,52.40
2018-12-08T13:22:36.823Z,52.60
2018-12-08T13:23:40.182Z,52.50
2018-12-08T13:24:43.419Z,52.50
2018-12-08T13:25:46.662Z,52.70
2018-12-08T13:26:49.914Z,52.70
2018-12-08T13:27:53.156Z,53.00
2018-12-08T13:28:56.440Z,52.80
2018-12-08T13:29:59.703Z,52.50
2018-12-08T13:31:02.977Z,52.70
2018-12-08T13:32:06.184Z,52.70
2018-12-08T13:33:09.455Z,52.70
2018-12-08T13:34:24.993Z,52.70
2018-12-08T13:35:51.986Z,52.60
2018-12-08T13:36:55.389Z,52.70
2018-12-08T13:37:58.694Z,52.70